Kezdőlap
METAR-TAF:

METAR-TAF

Repülőterek :

Zsolna, Szlovákia

földrajzi szélesség: 49-14N, földrajzi hosszúság: 018-36-49E, magasság: 312 m

Jelenlegi meteorológiai megfigyelések

A jelentés 15 perccel ezelõtt készült, 13:00 UTC
Nyugat-északnyugati szél 4 kt
Hőmérséklet 5°C
Páratartalom 81%
Légköri nyomás 1010 hPa
Látótávolság 10 km, vagy több
felhőtlen 1500 m magasságban, és nincs gomolyfelhõ

METAR: LZZI 151300Z 30004KT CAVOK 05/02 Q1010

Idő: 14:15 (13:15 UTC)

Előrejelzés

A jelentés 2 órával és 15 perccel ezelõtt készült, 11:00 UTC
Az előrejelzés 15-én 12 óra UTC és 15-én 21 óra UTC között érvényes
Nyugat-északnyugati szél 4 kt
Látótávolság 10 km, vagy több
Szórványos felhőzet 5000 lábon
Szakadozott felhőzet 9000 lábon
15-én 16 óra UTC és 15-én 18 óra UTC között fokozatosan kialakuló
Különbözõ irányokból fújó szél 2 kt

TAF: LZZI 151100Z 1512/1521 30004KT 9999 SCT050 BKN090 BECMG 1516/1518 VRB02KT

Meteorológiai megfigyelések és előrejelzések több, mint 4000 repülőtéren (METAR és TAF jelentéseket).

A térképen piros és sárga pontok jelzik az elérhető meteorológiai állomásokat.

Mozgassa az egeret a pont fölött, hogy megjelenjen az állomás neve.

Azután kattintson az időjárási megfigyelések és előrejelzések megtekintéséhez.

A térkép megváltoztatása: kattintson a fekete keresztel jelölt zöld gombra ráközelítéshez, a vonallal jelölt zöld gombra távolításhoz, vagy a zöld nyilakra a szomszédos térképek eléréséhez.


METAR-TAF: